createdAt,value
2019-05-14T00:00:11.129Z,7.70
2019-05-14T00:02:41.323Z,7.70
2019-05-14T00:05:09.491Z,7.70
2019-05-14T00:07:37.865Z,7.70
2019-05-14T00:10:07.475Z,7.60
2019-05-14T00:12:35.983Z,7.60
2019-05-14T00:15:04.726Z,7.60
2019-05-14T00:17:33.067Z,7.60
2019-05-14T00:20:07.259Z,7.60
2019-05-14T00:22:32.021Z,7.60
2019-05-14T00:25:01.158Z,7.60
2019-05-14T00:27:31.180Z,7.60
2019-05-14T00:30:02.280Z,7.60
2019-05-14T00:32:31.679Z,7.60
2019-05-14T00:35:02.033Z,7.60
2019-05-14T00:37:32.122Z,7.60
2019-05-14T00:40:01.353Z,7.60
2019-05-14T00:42:31.878Z,7.60
2019-05-14T00:45:01.252Z,7.60
2019-05-14T00:47:30.975Z,7.60
2019-05-14T00:50:02.058Z,7.50
2019-05-14T00:52:31.490Z,7.50
2019-05-14T00:55:01.155Z,7.50
2019-05-14T00:57:31.654Z,7.60
2019-05-14T01:00:01.129Z,7.60
2019-05-14T01:02:31.853Z,7.60
2019-05-14T01:05:01.789Z,7.60
2019-05-14T01:07:31.627Z,7.60
2019-05-14T01:10:01.347Z,7.60
2019-05-14T01:12:31.716Z,7.60
2019-05-14T01:15:07.822Z,7.70
2019-05-14T01:17:31.484Z,7.60
2019-05-14T01:19:59.924Z,7.60
2019-05-14T01:22:28.288Z,7.60
2019-05-14T01:24:56.644Z,7.60
2019-05-14T01:27:24.999Z,7.60
2019-05-14T01:29:53.359Z,7.60
2019-05-14T01:32:22.112Z,7.50
2019-05-14T01:34:52.162Z,7.50
2019-05-14T01:37:21.850Z,7.50
2019-05-14T01:39:51.948Z,7.50
2019-05-14T01:42:21.652Z,7.50
2019-05-14T01:44:52.003Z,7.50
2019-05-14T01:47:21.407Z,7.50
2019-05-14T01:49:51.515Z,7.50
2019-05-14T01:52:21.785Z,7.50
2019-05-14T01:54:51.565Z,7.50
2019-05-14T01:57:21.864Z,7.50
2019-05-14T01:59:51.615Z,7.50
2019-05-14T02:02:21.846Z,7.40
2019-05-14T02:04:51.292Z,7.40
2019-05-14T02:07:21.947Z,7.40
2019-05-14T02:09:51.759Z,7.40
2019-05-14T02:12:22.162Z,7.40
2019-05-14T02:14:51.291Z,7.40
2019-05-14T02:17:21.297Z,7.40
2019-05-14T02:19:51.518Z,7.40
2019-05-14T02:22:21.697Z,7.40
2019-05-14T02:24:51.771Z,7.40
2019-05-14T02:27:21.423Z,7.40
2019-05-14T02:29:51.940Z,7.30
2019-05-14T02:32:19.926Z,7.30
2019-05-14T02:34:50.086Z,7.30
2019-05-14T02:37:19.448Z,7.30
2019-05-14T02:39:50.254Z,7.30
2019-05-14T02:42:19.736Z,7.30
2019-05-14T02:44:49.083Z,7.20
2019-05-14T02:47:19.545Z,7.30
2019-05-14T02:49:50.220Z,7.20
2019-05-14T02:52:20.341Z,7.20
2019-05-14T02:54:49.587Z,7.20
2019-05-14T02:57:19.991Z,7.20
2019-05-14T02:59:50.199Z,7.20
2019-05-14T03:02:18.838Z,7.20
2019-05-14T03:04:49.810Z,7.10
2019-05-14T03:07:19.426Z,7.10
2019-05-14T03:09:50.113Z,7.10
2019-05-14T03:12:19.402Z,7.00
2019-05-14T03:14:49.959Z,7.00
2019-05-14T03:17:19.798Z,7.00
2019-05-14T03:19:49.585Z,7.00
2019-05-14T03:22:26.183Z,7.00
2019-05-14T03:24:50.319Z,6.90
2019-05-14T03:27:19.432Z,6.90
2019-05-14T03:29:49.925Z,6.90
2019-05-14T03:32:22.509Z,6.90
2019-05-14T03:34:52.933Z,6.90
2019-05-14T03:37:23.327Z,6.90
2019-05-14T03:39:49.447Z,6.80
2019-05-14T03:42:19.407Z,6.80
2019-05-14T03:44:48.997Z,6.80
2019-05-14T03:47:19.583Z,6.80
2019-05-14T03:49:49.879Z,6.80
2019-05-14T03:52:20.067Z,6.80
2019-05-14T03:54:49.629Z,6.80
2019-05-14T03:57:20.069Z,6.80
2019-05-14T03:59:49.904Z,6.80
2019-05-14T04:02:19.827Z,6.80
2019-05-14T04:04:50.151Z,6.80
2019-05-14T04:07:19.596Z,6.80
2019-05-14T04:09:49.301Z,6.80
2019-05-14T04:12:19.145Z,6.80
2019-05-14T04:14:50.196Z,6.80
2019-05-14T04:17:31.764Z,6.80
2019-05-14T04:19:49.591Z,6.80
2019-05-14T04:22:19.161Z,6.90
2019-05-14T04:24:49.662Z,6.90
2019-05-14T04:27:20.435Z,6.90
2019-05-14T04:29:49.836Z,7.00
2019-05-14T04:32:20.078Z,7.10
2019-05-14T04:34:49.884Z,7.20
2019-05-14T04:37:20.030Z,7.20
2019-05-14T04:39:50.393Z,7.20
2019-05-14T04:42:20.316Z,7.40
2019-05-14T04:44:50.324Z,7.40
2019-05-14T04:47:31.130Z,7.40
2019-05-14T04:49:50.616Z,7.50
2019-05-14T04:52:20.506Z,7.60
2019-05-14T04:54:49.962Z,7.80
2019-05-14T04:57:20.255Z,7.80
2019-05-14T04:59:49.382Z,7.90
2019-05-14T05:02:19.846Z,7.90
2019-05-14T05:04:50.624Z,8.00
2019-05-14T05:07:19.150Z,8.10
2019-05-14T05:09:50.311Z,8.10
2019-05-14T05:12:19.735Z,8.10
2019-05-14T05:14:49.234Z,8.00
2019-05-14T05:17:19.576Z,8.10
2019-05-14T05:19:51.568Z,8.10
2019-05-14T05:22:19.576Z,8.20
2019-05-14T05:24:48.490Z,8.30
2019-05-14T05:27:18.437Z,8.50
2019-05-14T05:29:48.565Z,8.60
2019-05-14T05:32:19.356Z,8.70
2019-05-14T05:34:48.332Z,8.80
2019-05-14T05:37:18.965Z,8.80
2019-05-14T05:39:48.878Z,8.80
2019-05-14T05:42:18.793Z,8.80
2019-05-14T05:44:48.370Z,8.80
2019-05-14T05:47:18.216Z,8.90
2019-05-14T05:49:48.783Z,8.90
2019-05-14T05:52:18.926Z,8.90
2019-05-14T05:54:48.806Z,8.90
2019-05-14T05:57:18.771Z,9.00
2019-05-14T05:59:48.426Z,9.00
2019-05-14T06:02:18.596Z,9.00
2019-05-14T06:04:48.035Z,9.00
2019-05-14T06:07:18.325Z,9.00
2019-05-14T06:09:48.328Z,9.10
2019-05-14T06:12:19.026Z,9.00
2019-05-14T06:14:48.771Z,9.00
2019-05-14T06:17:19.137Z,8.90
2019-05-14T06:19:48.581Z,8.80
2019-05-14T06:22:18.834Z,8.70
2019-05-14T06:24:48.527Z,8.70
2019-05-14T06:27:18.160Z,8.80
2019-05-14T06:29:48.965Z,8.90
2019-05-14T06:32:18.710Z,9.00
2019-05-14T06:34:48.848Z,9.00
2019-05-14T06:37:19.010Z,9.20
2019-05-14T06:39:48.409Z,9.30
2019-05-14T06:42:19.199Z,9.50
2019-05-14T06:44:49.324Z,9.70
2019-05-14T06:47:18.475Z,9.90
2019-05-14T06:49:48.797Z,10.10
2019-05-14T06:52:18.706Z,10.30
2019-05-14T06:54:49.634Z,10.60
2019-05-14T06:57:18.034Z,10.90
2019-05-14T06:59:48.386Z,11.10
2019-05-14T07:02:19.130Z,11.30
2019-05-14T07:04:48.391Z,11.50
2019-05-14T07:07:16.553Z,11.50
2019-05-14T07:09:44.917Z,11.50
2019-05-14T07:12:13.289Z,11.50
2019-05-14T07:14:41.641Z,11.50
2019-05-14T07:17:10.016Z,11.50
2019-05-14T07:19:38.698Z,11.50
2019-05-14T07:22:09.035Z,11.50
2019-05-14T07:24:40.415Z,11.30
2019-05-14T07:27:09.395Z,11.20
2019-05-14T07:29:38.828Z,11.10
2019-05-14T07:32:08.965Z,11.20
2019-05-14T07:34:38.867Z,11.40
2019-05-14T07:37:09.325Z,11.60
2019-05-14T07:39:38.512Z,11.60
2019-05-14T07:42:09.565Z,11.60
2019-05-14T07:44:39.102Z,11.60
2019-05-14T07:47:08.384Z,11.40
2019-05-14T07:49:38.608Z,11.30
2019-05-14T07:52:09.226Z,11.30
2019-05-14T07:54:38.843Z,11.40
2019-05-14T07:57:08.796Z,11.50
2019-05-14T07:59:38.147Z,11.40
2019-05-14T08:02:09.154Z,11.20
2019-05-14T08:04:38.143Z,10.90
2019-05-14T08:07:08.724Z,10.60
2019-05-14T08:09:38.713Z,10.30
2019-05-14T08:12:09.065Z,10.10
2019-05-14T08:14:45.440Z,10.00
2019-05-14T08:17:08.652Z,9.90
2019-05-14T08:19:38.595Z,9.90
2019-05-14T08:22:09.299Z,9.90
2019-05-14T08:24:38.588Z,9.80
2019-05-14T08:27:08.549Z,9.80
2019-05-14T08:29:39.930Z,9.90
2019-05-14T08:32:08.865Z,10.00
2019-05-14T08:34:38.945Z,10.30
2019-05-14T08:37:08.291Z,10.60
2019-05-14T08:39:38.913Z,11.00
2019-05-14T08:42:08.557Z,11.30
2019-05-14T08:44:38.723Z,11.40
2019-05-14T08:47:09.317Z,11.40
2019-05-14T08:49:45.519Z,11.40
2019-05-14T08:52:08.814Z,11.30
2019-05-14T08:54:39.010Z,11.30
2019-05-14T08:57:09.394Z,11.50
2019-05-14T08:59:39.552Z,11.40
2019-05-14T09:02:10.406Z,11.30
2019-05-14T09:04:41.937Z,11.20
2019-05-14T09:07:09.353Z,11.20
2019-05-14T09:09:38.244Z,11.50
2019-05-14T09:12:12.198Z,12.00
2019-05-14T09:14:38.895Z,12.50
2019-05-14T09:17:09.705Z,12.90
2019-05-14T09:19:39.171Z,13.50
2019-05-14T09:22:09.393Z,14.00
2019-05-14T09:24:38.738Z,14.40
2019-05-14T09:27:08.429Z,14.80
2019-05-14T09:29:39.215Z,15.10
2019-05-14T09:32:09.384Z,15.50
2019-05-14T09:34:39.097Z,15.80
2019-05-14T09:37:08.683Z,16.20
2019-05-14T09:39:38.597Z,16.50
2019-05-14T09:42:08.189Z,16.60
2019-05-14T09:44:38.744Z,16.60
2019-05-14T09:47:08.481Z,16.50
2019-05-14T09:49:38.882Z,16.10
2019-05-14T09:52:08.818Z,15.70
2019-05-14T09:54:39.549Z,15.40
2019-05-14T09:57:08.321Z,15.30
2019-05-14T09:59:38.615Z,15.30
2019-05-14T10:02:09.176Z,15.00
2019-05-14T10:04:39.103Z,14.90
2019-05-14T10:07:08.696Z,15.00
2019-05-14T10:09:39.028Z,15.10
2019-05-14T10:12:08.979Z,15.30
2019-05-14T10:14:39.410Z,15.40
2019-05-14T10:17:07.324Z,15.40
2019-05-14T10:19:38.875Z,15.10
2019-05-14T10:22:08.108Z,14.90
2019-05-14T10:24:38.365Z,14.40
2019-05-14T10:27:08.671Z,14.10
2019-05-14T10:29:35.752Z,13.70
2019-05-14T10:32:04.103Z,13.10
2019-05-14T10:34:32.490Z,12.50
2019-05-14T10:37:00.838Z,12.10
2019-05-14T10:39:29.982Z,11.80
2019-05-14T10:41:58.579Z,11.50
2019-05-14T10:44:29.065Z,11.50
2019-05-14T10:46:58.270Z,11.90
2019-05-14T10:49:29.722Z,12.60
2019-05-14T10:51:58.613Z,13.20
2019-05-14T10:54:29.307Z,13.80
2019-05-14T10:56:59.218Z,14.00
2019-05-14T10:59:29.397Z,14.00
2019-05-14T11:01:57.231Z,14.00
2019-05-14T11:04:28.422Z,14.00
2019-05-14T11:06:55.601Z,14.10
2019-05-14T11:09:23.976Z,14.20
2019-05-14T11:11:52.334Z,14.40
2019-05-14T11:14:21.507Z,14.30
2019-05-14T11:16:49.871Z,14.20
2019-05-14T11:19:18.838Z,14.10
2019-05-14T11:21:48.427Z,13.80
2019-05-14T11:24:18.903Z,13.40
2019-05-14T11:26:48.790Z,13.00
2019-05-14T11:29:18.545Z,12.70
2019-05-14T11:31:48.442Z,12.60
2019-05-14T11:34:19.267Z,12.40
2019-05-14T11:36:49.459Z,12.30
2019-05-14T11:39:18.090Z,12.20
2019-05-14T11:41:49.097Z,11.90
2019-05-14T11:44:16.708Z,11.50
2019-05-14T11:46:56.323Z,11.10
2019-05-14T11:49:15.185Z,10.80
2019-05-14T11:52:00.856Z,10.50
2019-05-14T11:54:13.553Z,10.30
2019-05-14T11:56:42.170Z,10.00
2019-05-14T11:59:10.578Z,9.80
2019-05-14T12:01:39.386Z,9.60
2019-05-14T12:04:08.899Z,9.40
2019-05-14T12:06:39.069Z,9.30
2019-05-14T12:09:11.660Z,9.00
2019-05-14T12:11:38.534Z,8.80
2019-05-14T12:14:08.961Z,8.80
2019-05-14T12:16:39.293Z,9.00
2019-05-14T12:19:11.589Z,9.20
2019-05-14T12:21:39.452Z,9.60
2019-05-14T12:24:13.395Z,10.10
2019-05-14T12:26:38.615Z,10.50
2019-05-14T12:29:09.573Z,11.00
2019-05-14T12:31:38.599Z,11.50
2019-05-14T12:34:07.302Z,11.90
2019-05-14T12:36:35.637Z,12.30
2019-05-14T12:39:09.316Z,12.60
2019-05-14T12:41:38.224Z,12.80
2019-05-14T12:44:09.379Z,13.00
2019-05-14T12:46:36.730Z,13.30
2019-05-14T12:49:05.079Z,13.60
2019-05-14T12:51:33.456Z,13.70
2019-05-14T12:54:01.820Z,13.70
2019-05-14T12:56:30.178Z,13.40
2019-05-14T12:58:58.538Z,13.00
2019-05-14T13:01:26.898Z,12.50
2019-05-14T13:03:55.273Z,12.20
2019-05-14T13:06:23.620Z,12.10
2019-05-14T13:08:51.977Z,12.00
2019-05-14T13:11:20.344Z,11.80
2019-05-14T13:13:49.187Z,11.70
2019-05-14T13:16:19.397Z,11.60
2019-05-14T13:18:49.785Z,11.60
2019-05-14T13:21:19.218Z,11.50
2019-05-14T13:23:48.735Z,11.40
2019-05-14T13:26:18.923Z,11.50
2019-05-14T13:28:50.686Z,11.70
2019-05-14T13:31:18.324Z,11.90
2019-05-14T13:33:48.874Z,12.00
2019-05-14T13:36:20.555Z,11.90
2019-05-14T13:38:49.060Z,11.60
2019-05-14T13:41:19.171Z,11.30
2019-05-14T13:43:50.124Z,11.00
2019-05-14T13:46:18.965Z,10.90
2019-05-14T13:48:49.825Z,10.70
2019-05-14T13:51:19.426Z,10.70
2019-05-14T13:53:49.653Z,10.60
2019-05-14T13:56:18.935Z,10.60
2019-05-14T13:58:48.845Z,10.50
2019-05-14T14:01:19.395Z,10.50
2019-05-14T14:04:00.114Z,10.40
2019-05-14T14:06:20.698Z,10.20
2019-05-14T14:08:48.921Z,10.10
2019-05-14T14:11:19.202Z,9.90
2019-05-14T14:13:48.930Z,9.70
2019-05-14T14:16:19.729Z,9.50
2019-05-14T14:18:50.074Z,9.30
2019-05-14T14:21:19.618Z,9.20
2019-05-14T14:23:49.475Z,9.10
2019-05-14T14:26:18.423Z,9.20
2019-05-14T14:28:49.285Z,9.50
2019-05-14T14:31:18.850Z,9.90
2019-05-14T14:33:48.779Z,10.30
2019-05-14T14:36:19.549Z,10.60
2019-05-14T14:38:49.486Z,10.90
2019-05-14T14:41:19.378Z,11.30
2019-05-14T14:43:53.654Z,11.60
2019-05-14T14:46:19.315Z,12.00
2019-05-14T14:48:49.319Z,12.10
2019-05-14T14:51:19.425Z,12.10
2019-05-14T14:53:58.252Z,12.10
2019-05-14T14:56:18.896Z,12.10
2019-05-14T14:58:49.424Z,12.00
2019-05-14T15:01:19.475Z,11.70
2019-05-14T15:03:49.671Z,11.30
2019-05-14T15:06:17.291Z,11.00
2019-05-14T15:08:45.627Z,10.70
2019-05-14T15:11:13.988Z,10.40
2019-05-14T15:13:42.345Z,10.20
2019-05-14T15:16:13.415Z,10.00
2019-05-14T15:18:40.807Z,9.90
2019-05-14T15:21:09.759Z,9.90
2019-05-14T15:23:42.630Z,10.20
2019-05-14T15:26:12.040Z,10.50
2019-05-14T15:28:38.737Z,10.80
2019-05-14T15:31:08.700Z,11.00
2019-05-14T15:33:37.270Z,11.10
2019-05-14T15:36:05.648Z,11.10
2019-05-14T15:38:33.999Z,11.10
2019-05-14T15:41:02.352Z,11.10
2019-05-14T15:43:30.744Z,11.10
2019-05-14T15:45:59.129Z,11.00
2019-05-14T15:48:27.484Z,11.00
2019-05-14T15:50:55.842Z,10.90
2019-05-14T15:53:24.261Z,10.80
2019-05-14T15:55:52.644Z,10.70
2019-05-14T15:58:21.785Z,10.60
2019-05-14T16:00:50.364Z,10.60
2019-05-14T16:03:18.943Z,10.50
2019-05-14T16:05:48.778Z,10.30
2019-05-14T16:08:22.198Z,10.20
2019-05-14T16:10:47.471Z,10.10
2019-05-14T16:13:15.848Z,10.00
2019-05-14T16:15:44.217Z,9.80
2019-05-14T16:18:18.684Z,9.60
2019-05-14T16:20:43.140Z,9.40
2019-05-14T16:23:11.516Z,9.30
2019-05-14T16:25:39.928Z,9.30
2019-05-14T16:28:08.840Z,9.20
2019-05-14T16:30:39.752Z,9.30
2019-05-14T16:33:09.272Z,9.30
2019-05-14T16:35:39.292Z,9.40
2019-05-14T16:38:08.319Z,9.50
2019-05-14T16:40:39.393Z,9.40
2019-05-14T16:43:06.909Z,9.30
2019-05-14T16:45:35.346Z,9.20
2019-05-14T16:48:03.716Z,9.10
2019-05-14T16:50:32.069Z,9.10
2019-05-14T16:53:00.433Z,9.00
2019-05-14T16:55:30.701Z,8.90
2019-05-14T16:57:58.805Z,8.90
2019-05-14T17:00:29.338Z,8.80
2019-05-14T17:02:58.958Z,8.80
2019-05-14T17:05:30.005Z,8.70
2019-05-14T17:07:58.729Z,8.70
2019-05-14T17:10:28.646Z,8.70
2019-05-14T17:13:00.681Z,8.60
2019-05-14T17:15:28.792Z,8.60
2019-05-14T17:17:59.763Z,8.60
2019-05-14T17:20:27.228Z,8.50
2019-05-14T17:22:55.578Z,8.50
2019-05-14T17:25:27.245Z,8.50
2019-05-14T17:27:53.941Z,8.40
2019-05-14T17:30:22.417Z,8.40
2019-05-14T17:32:50.796Z,8.30
2019-05-14T17:35:19.669Z,8.20
2019-05-14T17:37:48.439Z,8.00
2019-05-14T17:40:16.992Z,7.90
2019-05-14T17:42:45.357Z,7.70
2019-05-14T17:45:13.721Z,7.60
2019-05-14T17:47:42.072Z,7.50
2019-05-14T17:50:10.463Z,7.40
2019-05-14T17:52:43.042Z,7.40
2019-05-14T17:55:11.985Z,7.30
2019-05-14T17:57:46.836Z,7.30
2019-05-14T18:00:09.652Z,7.20
2019-05-14T18:02:38.288Z,7.20
2019-05-14T18:05:09.068Z,7.10
2019-05-14T18:07:36.654Z,7.10
2019-05-14T18:10:08.808Z,7.00
2019-05-14T18:12:39.748Z,7.00
2019-05-14T18:15:08.558Z,6.90
2019-05-14T18:17:39.240Z,6.90
2019-05-14T18:20:08.436Z,6.90
2019-05-14T18:22:42.076Z,6.90
2019-05-14T18:25:07.365Z,6.80
2019-05-14T18:27:38.777Z,6.70
2019-05-14T18:30:08.934Z,6.70
2019-05-14T18:32:36.540Z,6.70
2019-05-14T18:35:05.277Z,6.60
2019-05-14T18:37:33.643Z,6.60
2019-05-14T18:40:02.008Z,6.60
2019-05-14T18:42:30.357Z,6.50
2019-05-14T18:44:59.085Z,6.50
2019-05-14T18:47:29.046Z,6.50
2019-05-14T18:49:59.525Z,6.40
2019-05-14T18:52:29.736Z,6.40
2019-05-14T18:54:59.055Z,6.40
2019-05-14T18:57:28.705Z,6.30
2019-05-14T18:59:57.300Z,6.30
2019-05-14T19:02:29.084Z,6.30
2019-05-14T19:04:57.899Z,6.30
2019-05-14T19:07:28.774Z,6.30
2019-05-14T19:09:58.507Z,6.20
2019-05-14T19:12:28.717Z,6.20
2019-05-14T19:14:58.731Z,6.20
2019-05-14T19:17:28.441Z,6.20
2019-05-14T19:19:58.735Z,6.10
2019-05-14T19:22:28.596Z,6.10
2019-05-14T19:24:58.599Z,6.10
2019-05-14T19:27:28.458Z,6.10
2019-05-14T19:29:56.419Z,6.20
2019-05-14T19:32:24.784Z,6.20
2019-05-14T19:34:53.127Z,6.20
2019-05-14T19:37:21.492Z,6.10
2019-05-14T19:39:49.859Z,6.20
2019-05-14T19:42:18.401Z,6.10
2019-05-14T19:44:48.327Z,6.10
2019-05-14T19:47:18.722Z,6.10
2019-05-14T19:49:48.481Z,6.10
2019-05-14T19:52:16.848Z,6.10
2019-05-14T19:54:45.216Z,6.10
2019-05-14T19:57:13.573Z,6.10
2019-05-14T19:59:42.391Z,6.10
2019-05-14T20:02:10.784Z,6.10
2019-05-14T20:04:39.100Z,6.10
2019-05-14T20:07:08.949Z,6.10
2019-05-14T20:09:38.839Z,6.10
2019-05-14T20:12:07.409Z,6.10
2019-05-14T20:14:38.084Z,6.10
2019-05-14T20:17:05.752Z,6.10
2019-05-14T20:19:34.120Z,6.10
2019-05-14T20:22:02.559Z,6.10
2019-05-14T20:24:30.908Z,6.10
2019-05-14T20:27:07.811Z,6.20
2019-05-14T20:29:29.276Z,6.20
2019-05-14T20:32:01.590Z,6.20
2019-05-14T20:34:28.581Z,6.10
2019-05-14T20:36:58.815Z,6.20
2019-05-14T20:39:29.280Z,6.20
2019-05-14T20:41:58.429Z,6.20
2019-05-14T20:44:27.970Z,6.10
2019-05-14T20:46:58.315Z,6.10
2019-05-14T20:49:28.380Z,6.10
2019-05-14T20:51:56.563Z,6.10
2019-05-14T20:54:24.933Z,6.10
2019-05-14T20:56:53.287Z,6.10
2019-05-14T20:59:21.671Z,6.10
2019-05-14T21:01:50.001Z,6.10
2019-05-14T21:04:18.966Z,6.10
2019-05-14T21:06:48.648Z,6.10
2019-05-14T21:09:19.092Z,6.10
2019-05-14T21:11:49.283Z,6.10
2019-05-14T21:14:18.318Z,6.10
2019-05-14T21:16:48.859Z,6.10
2019-05-14T21:19:16.856Z,6.10
2019-05-14T21:21:45.216Z,6.10
2019-05-14T21:24:13.560Z,6.10
2019-05-14T21:26:41.914Z,6.10
2019-05-14T21:29:10.278Z,6.10
2019-05-14T21:31:38.712Z,6.10
2019-05-14T21:34:08.124Z,6.10
2019-05-14T21:36:38.955Z,6.10
2019-05-14T21:39:08.120Z,6.10
2019-05-14T21:41:38.458Z,6.10
2019-05-14T21:44:08.520Z,6.10
2019-05-14T21:46:39.471Z,6.20
2019-05-14T21:49:07.673Z,6.20
2019-05-14T21:51:39.047Z,6.20
2019-05-14T21:54:06.648Z,6.10
2019-05-14T21:56:35.011Z,6.20
2019-05-14T21:59:03.378Z,6.10
2019-05-14T22:01:31.797Z,6.10
2019-05-14T22:04:00.383Z,6.10
2019-05-14T22:06:29.150Z,6.10
2019-05-14T22:08:59.156Z,6.10
2019-05-14T22:11:28.268Z,6.20
2019-05-14T22:13:58.283Z,6.20
2019-05-14T22:16:28.112Z,6.10
2019-05-14T22:18:59.093Z,6.20
2019-05-14T22:21:28.786Z,6.10
2019-05-14T22:23:58.740Z,6.10
2019-05-14T22:26:28.204Z,6.10
2019-05-14T22:28:58.517Z,6.10
2019-05-14T22:31:28.911Z,6.10
2019-05-14T22:33:58.295Z,6.10
2019-05-14T22:36:29.085Z,6.10
2019-05-14T22:38:57.906Z,6.10
2019-05-14T22:41:28.944Z,6.10
2019-05-14T22:43:59.304Z,6.10
2019-05-14T22:46:26.586Z,6.10
2019-05-14T22:48:54.927Z,6.10
2019-05-14T22:51:23.314Z,6.10
2019-05-14T22:53:51.660Z,6.10
2019-05-14T22:56:20.032Z,6.10
2019-05-14T22:58:48.929Z,6.20
2019-05-14T23:01:18.363Z,6.20
2019-05-14T23:03:48.924Z,6.10
2019-05-14T23:06:18.755Z,6.10
2019-05-14T23:08:48.731Z,6.20
2019-05-14T23:11:19.520Z,6.20
2019-05-14T23:13:48.743Z,6.20
2019-05-14T23:16:32.651Z,6.20
2019-05-14T23:18:48.731Z,6.20
2019-05-14T23:21:17.339Z,6.20
2019-05-14T23:23:45.688Z,6.20
2019-05-14T23:26:14.060Z,6.20
2019-05-14T23:28:45.731Z,6.20
2019-05-14T23:31:12.421Z,6.20
2019-05-14T23:33:40.772Z,6.20
2019-05-14T23:36:09.119Z,6.20
2019-05-14T23:38:38.796Z,6.20
2019-05-14T23:41:08.629Z,6.20
2019-05-14T23:43:39.130Z,6.20
2019-05-14T23:46:09.475Z,6.20
2019-05-14T23:48:39.115Z,6.20
2019-05-14T23:51:08.065Z,6.30
2019-05-14T23:53:38.840Z,6.20
2019-05-14T23:56:08.668Z,6.30
2019-05-14T23:58:36.764Z,6.30
